Flight Track Log - Related Links

Times and Time Zones

All times are in EDT time to prevent confusion due to time zone crossing. See the DAL1430 flight status page for this flight to view local times or setup timezone preferences in your user account.

Time Position Orientation Groundspeed Altitude Reporting Facility
EDT Latitude Longitude Course Direction KTS MPH feet Rate Location/Type
Mon 02:30:41 PM 33.6333 -84.3183 53° Northeast 460 529 4,300  Level Atlanta Center
Mon 02:31:32 PM 33.6333 -84.2500 90° East 273 314 6,900 2,867 Climbing Atlanta TRACON
Mon 02:32:00 PM 33.7267 -84.0166 54° Northeast  Level FlightAware Approximate
Mon 02:33:00 PM 33.7945 -83.9039 54° Northeast  Level FlightAware Approximate
Mon 02:33:41 PM 33.6689 -84.0514 78° East 307 353 12,900  Level Atlanta Center
Mon 02:34:00 PM 33.8621 -83.7909 54° Northeast  Level FlightAware Approximate
Mon 02:34:41 PM 33.7358 -83.9689 46° Northeast 314 361 14,500  Level Atlanta Center
Mon 02:35:00 PM 33.9367 -83.6846 53° Northeast  Level FlightAware Approximate
Mon 02:35:41 PM 33.8128 -83.8689 47° Northeast 376 433 16,600  Level Atlanta Center
Mon 02:36:00 PM 34.0062 -83.5731 53° Northeast  Level FlightAware Approximate
Mon 02:36:41 PM 33.8919 -83.7661 47° Northeast 411 473 18,600  Level Atlanta Center
Mon 02:37:41 PM 33.9731 -83.6531 49° Northeast 430 495 20,800 2,200 Climbing Atlanta Center
Mon 02:38:41 PM 34.0519 -83.5247 53° Northeast 443 510 23,000 1,900 Climbing Atlanta Center
Mon 02:39:41 PM 34.1244 -83.4064 53° Northeast 449 517 24,600 1,550 Climbing Atlanta Center
Mon 02:40:41 PM 34.2053 -83.2803 52° Northeast 472 543 26,100 1,600 Climbing Atlanta Center
Mon 02:41:41 PM 34.2878 -83.1461 53° Northeast 485 558 27,800 1,500 Climbing Atlanta Center
Mon 02:42:41 PM 34.3783 -83.0019 53° Northeast 490 564 29,100 1,250 Climbing Atlanta Center
Mon 02:43:41 PM 34.4647 -82.8622 53° Northeast 497 572 30,300 1,550 Climbing Atlanta Center
Mon 02:44:41 PM 34.5492 -82.7300 52° Northeast 504 580 32,200 1,300 Climbing Atlanta Center
Mon 02:45:41 PM 34.6331 -82.5922 53° Northeast 504 580 32,900 800 Climbing Atlanta Center
Mon 02:46:41 PM 34.7147 -82.4544 54° Northeast 504 580 33,800 1,050 Climbing Atlanta Center
Mon 02:47:41 PM 34.8028 -82.3136 53° Northeast 510 587 35,000 600 Climbing Atlanta Center
Mon 02:48:41 PM 34.8800 -82.1853 54° Northeast 510 587 35,000  Level Atlanta Center
Mon 02:49:41 PM 34.9633 -82.0442 54° Northeast 511 588 35,000  Level Atlanta Center
Mon 02:50:41 PM 35.0467 -81.9050 54° Northeast 511 588 35,000  Level Atlanta Center
Mon 02:51:41 PM 35.1253 -81.7558 57° Northeast 511 588 35,000  Level Atlanta Center
Mon 02:52:41 PM 35.2100 -81.5983 57° Northeast 511 588 35,000  Level Atlanta Center
Mon 02:53:41 PM 35.2883 -81.4486 57° Northeast 511 588 35,000  Level Atlanta Center
Mon 02:54:41 PM 35.3600 -81.2986 60° Northeast 511 588 35,000  Level Atlanta Center
Mon 02:55:41 PM 35.4192 -81.1386 66° East 506 582 35,000  Level Atlanta Center
Mon 02:56:41 PM 35.4925 -80.9856 59° Northeast 511 588 35,000  Level Atlanta Center
Mon 02:57:41 PM 35.5744 -80.8394 55° Northeast 516 594 35,000  Level Atlanta Center
Mon 02:58:41 PM 35.6558 -80.6931 56° Northeast 523 602 35,000  Level Atlanta Center
Mon 02:59:41 PM 35.7372 -80.5439 56° Northeast 528 608 35,000  Level Atlanta Center
Mon 03:00:41 PM 35.8164 -80.3947 57° Northeast 523 602 35,000  Level Atlanta Center
Mon 03:01:41 PM 35.8953 -80.2450 57° Northeast 523 602 35,000  Level Atlanta Center
Mon 03:04:06 PM 36.0956 -79.8900 55° Northeast 517 595 35,000  Level Washington Center
Mon 03:05:07 PM 36.1803 -79.7403 55° Northeast 530 610 35,000 -347 Level Washington Center
Mon 03:06:07 PM 36.2556 -79.6078 55° Northeast 530 610 34,300 -504 Descending Washington Center
Mon 03:07:06 PM 36.3508 -79.4425 54° Northeast 530 610 34,000 -151 Descending Washington Center
Mon 03:08:06 PM 36.4328 -79.2889 56° Northeast 530 610 34,000 -100 Level Washington Center
Mon 03:09:06 PM 36.5100 -79.1506 55° Northeast 530 610 33,800 -595 Descending Washington Center
Mon 03:10:07 PM 36.6044 -78.9892 54° Northeast 530 610 32,800 -1,750 Descending Washington Center
Mon 03:11:06 PM 36.6794 -78.8475 57° Northeast 530 610 30,300 -1,900 Descending Washington Center
Mon 03:12:07 PM 36.7647 -78.6928 55° Northeast 535 616 29,000 -850 Descending Washington Center
Mon 03:13:06 PM 36.8567 -78.5225 56° Northeast 535 616 28,600 -454 Descending Washington Center
Mon 03:14:06 PM 36.9417 -78.3700 55° Northeast 540 621 28,100 -550 Descending Washington Center
Mon 03:15:06 PM 37.0267 -78.2092 56° Northeast 545 627 27,500 -744 Descending Washington Center
Mon 03:16:07 PM 37.1114 -78.0531 56° Northeast 545 627 26,600 -744 Descending Washington Center
Mon 03:17:07 PM 37.2061 -77.9050 51° Northeast 545 627 26,000 -303 Descending Washington Center
Mon 03:18:06 PM 37.3350 -77.8147 29° Northeast 516 594 26,000  Level Washington Center
Mon 03:19:07 PM 37.4681 -77.7322 26° Northeast 521 600 26,000 -100 Level Washington Center
Mon 03:20:06 PM 37.5989 -77.6494 27° Northeast 521 600 25,800 -1,400 Descending Washington Center
Mon 03:21:07 PM 37.7253 -77.5661 28° Northeast 514 592 23,200 -1,400 Descending Washington Center
Mon 03:22:06 PM 37.8433 -77.4903 27° Northeast 495 570 23,000 -403 Descending Washington Center
Mon 03:23:06 PM 37.9572 -77.4142 28° Northeast 472 543 22,400 -744 Descending Washington Center
Mon 03:24:07 PM 38.0603 -77.3533 25° Northeast 457 526 21,500 -950 Descending Washington Center
Mon 03:25:06 PM 38.1739 -77.2794 27° Northeast 452 520 20,500 -1,815 Descending Washington Center
Mon 03:26:06 PM 38.2814 -77.2053 28° Northeast 447 514 17,900 -2,678 Descending Washington Center
Mon 03:27:07 PM 38.3844 -77.1306 30° Northeast 435 501 15,100 -2,182 Descending Washington Center
Mon 03:28:07 PM 38.4669 -77.0342 42° Northeast 418 481 13,500 -2,017 Descending Washington Center
Mon 03:29:06 PM 38.5494 -76.9403 42° Northeast 401 461 11,100 -1,600 Descending Washington Center
Mon 03:30:07 PM 38.6192 -76.8511 45° Northeast 371 427 10,300 -850 Descending Washington Center
Mon 03:31:06 PM 38.6867 -76.7619 46° Northeast 330 380 9,400 -908 Descending Washington Center
Mon 03:32:06 PM 38.7292 -76.6933 52° Northeast 295 339 8,500 -1,190 Descending Washington Center
Mon 03:33:02 PM 38.7667 -76.6000 63° Northeast 277 319 7,100 -1,345 Descending Potomac TRACON
Mon 03:34:02 PM 38.8167 -76.5333 46° Northeast 279 321 5,900 -1,041 Descending Potomac TRACON
Mon 03:35:03 PM 38.8833 -76.5500 349° North 250 288 5,000 -950 Descending Potomac TRACON
Mon 03:36:02 PM 38.9500 -76.5833 339° North 252 290 4,000 -500 Descending Potomac TRACON
Mon 03:37:03 PM 39.0000 -76.6500 314° West 256 295 4,000 -149 Level Potomac TRACON
Mon 03:38:03 PM 39.0333 -76.7167 303° West 242 278 3,700 -800 Descending Potomac TRACON
Mon 03:39:03 PM 39.0833 -76.7667 322° Northwest 216 249 2,400 -887 Descending Potomac TRACON
Mon 03:39:58 PM 39.1333 -76.7833 346° North 204 235 2,000 -436 Descending Potomac TRACON

Login

Don't have an account? Register now (free) for customized features, flight alerts, and more!